Terminal Aerodrome Forecast
Issued by NWS Midland/Odessa, TX

Home | Current Version | Previous Version | Text Only | Print | Product List | Glossary On
Versions: 1 2 3 4 5 6 7 8 9 10 11 12 13 14 15 16 17
000
FTUS44 KMAF 180800 AAA
TAFMAF
TAF AMD
KMAF 180807Z 1808/1906 13005KT P6SM SCT090 BKN120
     FM181600 08007KT P6SM SCT035 OVC130
     FM190100 09010KT P6SM OVC035
     FM190400 11009KT P6SM OVC030=

USA.gov is the U.S. government's official web portal to all federal, state and local government web resources and services.